sensor_id;sensor_type;location;lat;lon;timestamp;pressure;altitude;pressure_sealevel;temperature;humidity
46291;BME280;32023;44.444;26.006;2023-09-19T00:00:51;100845.88;;;18.57;58.82
46291;BME280;32023;44.444;26.006;2023-09-19T00:03:38;100848.66;;;18.57;58.89
46291;BME280;32023;44.444;26.006;2023-09-19T00:06:05;100845.88;;;18.57;58.90
46291;BME280;32023;44.444;26.006;2023-09-19T00:08:35;100810.09;;;18.40;59.05
46291;BME280;32023;44.444;26.006;2023-09-19T00:11:09;100839.16;;;18.58;59.23
46291;BME280;32023;44.444;26.006;2023-09-19T00:16:26;100828.47;;;18.41;60.18
46291;BME280;32023;44.444;26.006;2023-09-19T00:18:53;100835.72;;;18.42;60.01
46291;BME280;32023;44.444;26.006;2023-09-19T00:21:22;100838.19;;;18.44;59.99
46291;BME280;32023;44.444;26.006;2023-09-19T00:23:48;100832.38;;;18.40;60.07
46291;BME280;32023;44.444;26.006;2023-09-19T00:26:17;100831.88;;;18.38;59.98
46291;BME280;32023;44.444;26.006;2023-09-19T00:28:44;100837.13;;;18.40;60.05
46291;BME280;32023;44.444;26.006;2023-09-19T00:31:13;100836.06;;;18.36;60.30
46291;BME280;32023;44.444;26.006;2023-09-19T00:33:40;100829.97;;;18.34;60.24
46291;BME280;32023;44.444;26.006;2023-09-19T00:36:06;100835.28;;;18.35;60.25
46291;BME280;32023;44.444;26.006;2023-09-19T00:38:36;100833.00;;;18.37;60.45
46291;BME280;32023;44.444;26.006;2023-09-19T00:41:23;100828.84;;;18.35;60.73
46291;BME280;32023;44.444;26.006;2023-09-19T00:43:51;100822.22;;;18.31;60.91
46291;BME280;32023;44.444;26.006;2023-09-19T00:46:17;100822.28;;;18.25;60.94
46291;BME280;32023;44.444;26.006;2023-09-19T00:48:47;100824.00;;;18.21;61.01
46291;BME280;32023;44.444;26.006;2023-09-19T00:51:16;100817.97;;;18.14;61.29
46291;BME280;32023;44.444;26.006;2023-09-19T00:53:47;100817.22;;;18.09;61.29
46291;BME280;32023;44.444;26.006;2023-09-19T00:56:28;100816.44;;;18.03;61.56
46291;BME280;32023;44.444;26.006;2023-09-19T00:59:08;100808.47;;;17.97;61.50
46291;BME280;32023;44.444;26.006;2023-09-19T01:01:48;100807.69;;;17.91;61.69
46291;BME280;32023;44.444;26.006;2023-09-19T01:04:19;100804.16;;;17.86;62.03
46291;BME280;32023;44.444;26.006;2023-09-19T01:06:53;100807.81;;;17.81;62.13
46291;BME280;32023;44.444;26.006;2023-09-19T01:09:28;100809.59;;;17.72;62.18
46291;BME280;32023;44.444;26.006;2023-09-19T01:12:04;100799.91;;;17.64;62.39
46291;BME280;32023;44.444;26.006;2023-09-19T01:14:50;100793.03;;;17.57;62.56
46291;BME280;32023;44.444;26.006;2023-09-19T01:17:45;100797.00;;;17.51;62.82
46291;BME280;32023;44.444;26.006;2023-09-19T01:27:12;100788.56;;;17.32;63.71
46291;BME280;32023;44.444;26.006;2023-09-19T01:29:50;100792.22;;;17.27;64.28
46291;BME280;32023;44.444;26.006;2023-09-19T01:32:20;100788.91;;;17.25;64.63
46291;BME280;32023;44.444;26.006;2023-09-19T01:34:59;100793.66;;;17.25;64.77
46291;BME280;32023;44.444;26.006;2023-09-19T01:37:34;100794.28;;;17.17;65.33
46291;BME280;32023;44.444;26.006;2023-09-19T01:40:06;100787.84;;;17.21;65.37
46291;BME280;32023;44.444;26.006;2023-09-19T01:43:59;100785.94;;;17.17;65.38
46291;BME280;32023;44.444;26.006;2023-09-19T01:46:24;100785.69;;;17.13;65.30
46291;BME280;32023;44.444;26.006;2023-09-19T01:49:07;100792.66;;;17.11;65.26
46291;BME280;32023;44.444;26.006;2023-09-19T01:52:05;100785.19;;;17.06;65.58
46291;BME280;32023;44.444;26.006;2023-09-19T01:54:59;100794.94;;;17.04;65.38
46291;BME280;32023;44.444;26.006;2023-09-19T02:00:43;100788.66;;;16.93;65.33
46291;BME280;32023;44.444;26.006;2023-09-19T02:03:12;100788.72;;;16.88;65.41
46291;BME280;32023;44.444;26.006;2023-09-19T02:05:41;100789.25;;;16.85;65.44
46291;BME280;32023;44.444;26.006;2023-09-19T02:08:08;100785.72;;;16.79;65.73
46291;BME280;32023;44.444;26.006;2023-09-19T02:10:36;100789.34;;;16.75;65.79
46291;BME280;32023;44.444;26.006;2023-09-19T02:13:02;100791.06;;;16.71;65.70
46291;BME280;32023;44.444;26.006;2023-09-19T02:15:38;100791.91;;;16.66;65.67
46291;BME280;32023;44.444;26.006;2023-09-19T02:18:04;100797.81;;;16.60;65.74
46291;BME280;32023;44.444;26.006;2023-09-19T02:20:31;100808.94;;;16.55;65.42
46291;BME280;32023;44.444;26.006;2023-09-19T02:22:59;100801.75;;;16.49;65.36
46291;BME280;32023;44.444;26.006;2023-09-19T02:25:25;100803.44;;;16.45;65.41
46291;BME280;32023;44.444;26.006;2023-09-19T02:27:54;100794.59;;;16.37;65.23
46291;BME280;32023;44.444;26.006;2023-09-19T02:30:25;100798.00;;;16.29;65.58
46291;BME280;32023;44.444;26.006;2023-09-19T02:32:58;100796.91;;;16.25;65.72
46291;BME280;32023;44.444;26.006;2023-09-19T02:35:27;100792.75;;;16.23;65.78
46291;BME280;32023;44.444;26.006;2023-09-19T02:37:57;100791.09;;;16.22;65.81
46291;BME280;32023;44.444;26.006;2023-09-19T02:40:26;100791.66;;;16.19;65.59
46291;BME280;32023;44.444;26.006;2023-09-19T02:42:59;100792.50;;;16.14;65.94
46291;BME280;32023;44.444;26.006;2023-09-19T02:45:29;100798.94;;;16.10;66.09
46291;BME280;32023;44.444;26.006;2023-09-19T02:47:57;100793.69;;;16.03;66.38
46291;BME280;32023;44.444;26.006;2023-09-19T02:50:26;100792.59;;;15.99;66.65
46291;BME280;32023;44.444;26.006;2023-09-19T02:52:52;100787.31;;;15.98;66.61
46291;BME280;32023;44.444;26.006;2023-09-19T02:55:26;100791.50;;;15.95;66.88
46291;BME280;32023;44.444;26.006;2023-09-19T02:57:55;100786.53;;;15.92;67.40
46291;BME280;32023;44.444;26.006;2023-09-19T03:00:26;100779.28;;;15.91;67.67
46291;BME280;32023;44.444;26.006;2023-09-19T03:02:56;100780.72;;;15.88;68.05
46291;BME280;32023;44.444;26.006;2023-09-19T03:05:25;100781.53;;;15.89;68.39
46291;BME280;32023;44.444;26.006;2023-09-19T03:08:01;100789.56;;;15.90;68.78
46291;BME280;32023;44.444;26.006;2023-09-19T03:10:28;100788.19;;;15.93;68.94
46291;BME280;32023;44.444;26.006;2023-09-19T03:12:58;100795.38;;;15.94;69.17
46291;BME280;32023;44.444;26.006;2023-09-19T03:29:31;100782.06;;;15.91;69.71
46291;BME280;32023;44.444;26.006;2023-09-19T03:31:57;100786.53;;;15.92;69.77
46291;BME280;32023;44.444;26.006;2023-09-19T03:34:37;100778.19;;;15.92;69.72
46291;BME280;32023;44.444;26.006;2023-09-19T03:37:15;100785.97;;;15.90;69.39
46291;BME280;32023;44.444;26.006;2023-09-19T03:39:50;100789.88;;;15.89;69.65
46291;BME280;32023;44.444;26.006;2023-09-19T03:42:16;100780.44;;;15.85;69.76
46291;BME280;32023;44.444;26.006;2023-09-19T03:44:43;100775.75;;;15.80;69.41
46291;BME280;32023;44.444;26.006;2023-09-19T03:47:10;100778.81;;;15.74;69.26
46291;BME280;32023;44.444;26.006;2023-09-19T03:49:38;100772.19;;;15.70;69.58
46291;BME280;32023;44.444;26.006;2023-09-19T03:52:04;100778.84;;;15.64;69.52
46291;BME280;32023;44.444;26.006;2023-09-19T03:55:01;100777.47;;;15.56;69.42
46291;BME280;32023;44.444;26.006;2023-09-19T03:57:39;100779.47;;;15.51;69.57
46291;BME280;32023;44.444;26.006;2023-09-19T04:00:30;100781.09;;;15.47;69.38
46291;BME280;32023;44.444;26.006;2023-09-19T04:05:32;100798.31;;;15.38;69.63
46291;BME280;32023;44.444;26.006;2023-09-19T04:08:04;100796.13;;;15.40;69.63
46291;BME280;32023;44.444;26.006;2023-09-19T04:10:35;100797.22;;;15.39;69.48
46291;BME280;32023;44.444;26.006;2023-09-19T04:13:02;100794.44;;;15.39;69.88
46291;BME280;32023;44.444;26.006;2023-09-19T04:15:33;100787.22;;;15.38;69.93
46291;BME280;32023;44.444;26.006;2023-09-19T04:18:34;100776.69;;;15.35;70.14
46291;BME280;32023;44.444;26.006;2023-09-19T04:21:26;100775.03;;;15.34;70.04
46291;BME280;32023;44.444;26.006;2023-09-19T04:24:05;100775.59;;;15.36;70.12
46291;BME280;32023;44.444;26.006;2023-09-19T04:26:55;100765.59;;;15.35;70.47
46291;BME280;32023;44.444;26.006;2023-09-19T04:29:52;100771.16;;;15.35;70.55
46291;BME280;32023;44.444;26.006;2023-09-19T04:32:52;100765.03;;;15.38;70.83
46291;BME280;32023;44.444;26.006;2023-09-19T04:39:35;100761.97;;;15.50;71.85
46291;BME280;32023;44.444;26.006;2023-09-19T04:42:40;100759.97;;;15.61;72.03
46291;BME280;32023;44.444;26.006;2023-09-19T04:48:31;100758.19;;;15.90;72.23
46291;BME280;32023;44.444;26.006;2023-09-19T04:51:30;100753.69;;;16.04;72.16
46291;BME280;32023;44.444;26.006;2023-09-19T04:54:16;100754.69;;;16.18;72.30
46291;BME280;32023;44.444;26.006;2023-09-19T04:56:49;100755.69;;;16.37;71.76
46291;BME280;32023;44.444;26.006;2023-09-19T04:59:18;100756.94;;;16.55;71.31
46291;BME280;32023;44.444;26.006;2023-09-19T05:01:44;100749.31;;;16.76;70.91
46291;BME280;32023;44.444;26.006;2023-09-19T05:04:21;100744.69;;;16.95;69.94
46291;BME280;32023;44.444;26.006;2023-09-19T05:06:52;100748.91;;;17.16;69.14
46291;BME280;32023;44.444;26.006;2023-09-19T05:09:25;100745.38;;;17.34;68.25
46291;BME280;32023;44.444;26.006;2023-09-19T05:12:13;100745.16;;;17.55;67.25
46291;BME280;32023;44.444;26.006;2023-09-19T05:21:33;100734.97;;;18.11;64.56
46291;BME280;32023;44.444;26.006;2023-09-19T05:24:27;100732.56;;;18.23;64.04
46291;BME280;32023;44.444;26.006;2023-09-19T05:27:10;100736.97;;;18.43;63.60
46291;BME280;32023;44.444;26.006;2023-09-19T05:36:43;100739.25;;;18.92;61.85
46291;BME280;32023;44.444;26.006;2023-09-19T05:42:53;100733.56;;;19.30;60.14
46291;BME280;32023;44.444;26.006;2023-09-19T05:45:35;100730.28;;;19.55;59.57
46291;BME280;32023;44.444;26.006;2023-09-19T05:48:31;100723.25;;;19.71;58.96
46291;BME280;32023;44.444;26.006;2023-09-19T05:51:08;100727.66;;;19.86;58.35
46291;BME280;32023;44.444;26.006;2023-09-19T05:54:09;100716.97;;;20.01;57.92
46291;BME280;32023;44.444;26.006;2023-09-19T05:56:37;100720.44;;;20.20;57.23
46291;BME280;32023;44.444;26.006;2023-09-19T05:59:07;100719.59;;;20.34;56.78
46291;BME280;32023;44.444;26.006;2023-09-19T06:05:34;100710.75;;;20.85;55.32
46291;BME280;32023;44.444;26.006;2023-09-19T06:08:26;100707.94;;;21.07;54.35
46291;BME280;32023;44.444;26.006;2023-09-19T06:11:12;100711.03;;;21.28;53.87
46291;BME280;32023;44.444;26.006;2023-09-19T06:13:41;100712.56;;;21.42;53.31
46291;BME280;32023;44.444;26.006;2023-09-19T06:16:37;100710.66;;;21.60;52.56
46291;BME280;32023;44.444;26.006;2023-09-19T06:20:12;100711.72;;;21.81;51.27
46291;BME280;32023;44.444;26.006;2023-09-19T06:25:40;100711.31;;;22.22;50.58
46291;BME280;32023;44.444;26.006;2023-09-19T06:28:21;100704.19;;;22.33;49.72
46291;BME280;32023;44.444;26.006;2023-09-19T06:30:54;100712.78;;;22.37;49.76
46291;BME280;32023;44.444;26.006;2023-09-19T06:33:24;100703.88;;;22.35;49.95
46291;BME280;32023;44.444;26.006;2023-09-19T06:35:56;100706.00;;;22.55;49.54
46291;BME280;32023;44.444;26.006;2023-09-19T06:38:33;100700.41;;;22.72;48.91
46291;BME280;32023;44.444;26.006;2023-09-19T06:44:15;100697.44;;;22.77;48.07
46291;BME280;32023;44.444;26.006;2023-09-19T06:47:04;100700.25;;;22.77;48.26
46291;BME280;32023;44.444;26.006;2023-09-19T06:49:58;100698.09;;;22.74;48.03
46291;BME280;32023;44.444;26.006;2023-09-19T06:55:45;100698.25;;;22.86;47.88
46291;BME280;32023;44.444;26.006;2023-09-19T07:01:28;100697.72;;;23.01;46.68
46291;BME280;32023;44.444;26.006;2023-09-19T07:04:04;100701.31;;;23.11;47.03
46291;BME280;32023;44.444;26.006;2023-09-19T07:06:53;100707.84;;;23.32;46.22
46291;BME280;32023;44.444;26.006;2023-09-19T07:09:22;100708.78;;;22.98;45.83
46291;BME280;32023;44.444;26.006;2023-09-19T07:11:57;100709.16;;;22.79;45.36
46291;BME280;32023;44.444;26.006;2023-09-19T07:14:24;100700.72;;;22.79;45.77
46291;BME280;32023;44.444;26.006;2023-09-19T07:17:00;100704.97;;;23.02;45.80
46291;BME280;32023;44.444;26.006;2023-09-19T07:19:38;100701.25;;;23.28;45.97
46291;BME280;32023;44.444;26.006;2023-09-19T07:22:09;100701.13;;;23.62;44.86
46291;BME280;32023;44.444;26.006;2023-09-19T07:24:36;100704.50;;;23.76;44.45
46291;BME280;32023;44.444;26.006;2023-09-19T07:27:08;100690.13;;;23.78;44.33
46291;BME280;32023;44.444;26.006;2023-09-19T07:29:35;100698.19;;;23.79;44.02
46291;BME280;32023;44.444;26.006;2023-09-19T07:32:11;100693.75;;;23.78;44.14
46291;BME280;32023;44.444;26.006;2023-09-19T07:34:51;100702.09;;;23.66;44.70
46291;BME280;32023;44.444;26.006;2023-09-19T07:37:18;100701.13;;;23.91;44.36
46291;BME280;32023;44.444;26.006;2023-09-19T07:39:44;100687.53;;;24.23;43.72
46291;BME280;32023;44.444;26.006;2023-09-19T07:42:20;100685.56;;;24.56;43.42
46291;BME280;32023;44.444;26.006;2023-09-19T07:44:49;100684.72;;;24.76;42.70
46291;BME280;32023;44.444;26.006;2023-09-19T07:47:17;100675.63;;;24.71;42.78
46291;BME280;32023;44.444;26.006;2023-09-19T07:49:47;100675.63;;;24.91;42.61
46291;BME280;32023;44.444;26.006;2023-09-19T07:52:21;100673.66;;;25.16;42.09
46291;BME280;32023;44.444;26.006;2023-09-19T07:54:50;100676.09;;;24.93;42.03
46291;BME280;32023;44.444;26.006;2023-09-19T07:57:16;100679.34;;;24.83;42.37
46291;BME280;32023;44.444;26.006;2023-09-19T07:59:46;100675.09;;;24.77;42.49
46291;BME280;32023;44.444;26.006;2023-09-19T08:02:27;100667.31;;;24.74;42.21
46291;BME280;32023;44.444;26.006;2023-09-19T08:04:57;100673.84;;;24.66;42.17
46291;BME280;32023;44.444;26.006;2023-09-19T08:07:28;100680.09;;;24.92;41.64
46291;BME280;32023;44.444;26.006;2023-09-19T08:10:00;100679.44;;;25.20;40.50
46291;BME280;32023;44.444;26.006;2023-09-19T08:12:33;100664.19;;;25.45;40.52
46291;BME280;32023;44.444;26.006;2023-09-19T08:15:07;100659.50;;;25.85;39.91
46291;BME280;32023;44.444;26.006;2023-09-19T08:17:37;100660.34;;;26.26;39.16
46291;BME280;32023;44.444;26.006;2023-09-19T08:20:03;100666.66;;;26.63;37.61
46291;BME280;32023;44.444;26.006;2023-09-19T08:22:41;100665.34;;;27.00;36.70
46291;BME280;32023;44.444;26.006;2023-09-19T08:25:17;100665.25;;;27.28;35.73
46291;BME280;32023;44.444;26.006;2023-09-19T08:27:47;100652.84;;;27.17;36.67
46291;BME280;32023;44.444;26.006;2023-09-19T08:30:18;100609.25;;;27.18;36.54
46291;BME280;32023;44.444;26.006;2023-09-19T08:32:52;100652.84;;;27.80;35.49
46291;BME280;32023;44.444;26.006;2023-09-19T08:35:24;100646.41;;;28.17;34.74
46291;BME280;32023;44.444;26.006;2023-09-19T08:37:51;100648.06;;;28.57;33.45
46291;BME280;32023;44.444;26.006;2023-09-19T08:40:19;100650.47;;;28.97;33.13
46291;BME280;32023;44.444;26.006;2023-09-19T08:43:07;100652.00;;;28.91;33.40
46291;BME280;32023;44.444;26.006;2023-09-19T08:45:34;100638.84;;;29.02;33.51
46291;BME280;32023;44.444;26.006;2023-09-19T08:48:25;100636.22;;;29.61;31.73
46291;BME280;32023;44.444;26.006;2023-09-19T08:51:07;100634.69;;;30.20;30.90
46291;BME280;32023;44.444;26.006;2023-09-19T08:56:27;100640.47;;;30.97;29.80
46291;BME280;32023;44.444;26.006;2023-09-19T08:59:07;100643.22;;;31.27;28.94
46291;BME280;32023;44.444;26.006;2023-09-19T09:01:42;100640.34;;;31.24;29.11
46291;BME280;32023;44.444;26.006;2023-09-19T09:04:12;100638.38;;;31.31;29.30
46291;BME280;32023;44.444;26.006;2023-09-19T09:06:41;100637.63;;;31.34;29.43
46291;BME280;32023;44.444;26.006;2023-09-19T09:09:12;100620.59;;;31.41;29.19
46291;BME280;32023;44.444;26.006;2023-09-19T09:11:42;100628.91;;;31.61;28.83
46291;BME280;32023;44.444;26.006;2023-09-19T09:14:09;100621.63;;;31.67;28.09
46291;BME280;32023;44.444;26.006;2023-09-19T09:16:44;100628.09;;;30.79;26.88
46291;BME280;32023;44.444;26.006;2023-09-19T09:19:19;100633.84;;;29.63;27.60
46291;BME280;32023;44.444;26.006;2023-09-19T09:21:51;100641.78;;;28.86;28.71
46291;BME280;32023;44.444;26.006;2023-09-19T09:24:31;100631.91;;;28.19;29.43
46291;BME280;32023;44.444;26.006;2023-09-19T09:27:04;100622.16;;;28.16;30.11
46291;BME280;32023;44.444;26.006;2023-09-19T09:29:54;100626.69;;;27.86;31.56
46291;BME280;32023;44.444;26.006;2023-09-19T09:32:29;100621.28;;;27.46;32.86
46291;BME280;32023;44.444;26.006;2023-09-19T09:35:10;100628.31;;;27.37;33.33
46291;BME280;32023;44.444;26.006;2023-09-19T09:37:49;100623.47;;;27.37;33.56
46291;BME280;32023;44.444;26.006;2023-09-19T09:41:07;100626.50;;;27.60;33.17
46291;BME280;32023;44.444;26.006;2023-09-19T09:43:52;100616.41;;;28.51;31.24
46291;BME280;32023;44.444;26.006;2023-09-19T09:46:26;100612.22;;;29.55;29.78
46291;BME280;32023;44.444;26.006;2023-09-19T09:49:15;100614.22;;;31.55;27.59
46291;BME280;32023;44.444;26.006;2023-09-19T09:52:07;100607.38;;;32.35;25.63
46291;BME280;32023;44.444;26.006;2023-09-19T09:55:03;100601.03;;;32.91;24.64
46291;BME280;32023;44.444;26.006;2023-09-19T09:57:37;100598.19;;;33.69;23.52
46291;BME280;32023;44.444;26.006;2023-09-19T10:00:07;100601.91;;;34.78;22.70
46291;BME280;32023;44.444;26.006;2023-09-19T10:02:41;100608.09;;;35.28;22.54
46291;BME280;32023;44.444;26.006;2023-09-19T10:05:20;100594.50;;;35.43;22.10
46291;BME280;32023;44.444;26.006;2023-09-19T10:08:14;100589.19;;;35.38;22.56
46291;BME280;32023;44.444;26.006;2023-09-19T10:10:45;100590.94;;;35.24;22.14
46291;BME280;32023;44.444;26.006;2023-09-19T10:13:26;100592.03;;;34.86;22.81
46291;BME280;32023;44.444;26.006;2023-09-19T10:15:59;100591.31;;;33.38;23.68
46291;BME280;32023;44.444;26.006;2023-09-19T10:18:37;100596.84;;;32.50;24.58
46291;BME280;32023;44.444;26.006;2023-09-19T10:21:10;100592.53;;;32.02;24.83
46291;BME280;32023;44.444;26.006;2023-09-19T10:23:43;100584.47;;;32.14;24.33
46291;BME280;32023;44.444;26.006;2023-09-19T10:26:11;100577.00;;;32.85;22.99
46291;BME280;32023;44.444;26.006;2023-09-19T10:28:46;100590.72;;;34.25;21.06
46291;BME280;32023;44.444;26.006;2023-09-19T10:31:19;100595.16;;;35.06;20.03
46291;BME280;32023;44.444;26.006;2023-09-19T10:33:50;100601.63;;;35.68;19.22
46291;BME280;32023;44.444;26.006;2023-09-19T10:36:36;100588.63;;;34.40;20.43
46291;BME280;32023;44.444;26.006;2023-09-19T10:39:07;100579.03;;;33.66;21.69
46291;BME280;32023;44.444;26.006;2023-09-19T10:42:01;100586.38;;;33.07;22.18
46291;BME280;32023;44.444;26.006;2023-09-19T10:44:32;100584.59;;;32.50;22.89
46291;BME280;32023;44.444;26.006;2023-09-19T10:47:08;100578.69;;;32.04;23.42
46291;BME280;32023;44.444;26.006;2023-09-19T10:49:50;100572.66;;;32.12;22.65
46291;BME280;32023;44.444;26.006;2023-09-19T10:52:23;100574.75;;;32.29;22.59
46291;BME280;32023;44.444;26.006;2023-09-19T10:54:55;100570.47;;;32.88;21.67
46291;BME280;32023;44.444;26.006;2023-09-19T10:57:30;100580.59;;;33.99;20.42
46291;BME280;32023;44.444;26.006;2023-09-19T11:00:05;100574.59;;;34.66;19.74
46291;BME280;32023;44.444;26.006;2023-09-19T11:03:22;100576.09;;;34.85;19.39
46291;BME280;32023;44.444;26.006;2023-09-19T11:06:09;100571.19;;;33.99;20.17
46291;BME280;32023;44.444;26.006;2023-09-19T11:09:08;100562.72;;;33.10;21.22
46291;BME280;32023;44.444;26.006;2023-09-19T11:12:03;100558.22;;;33.02;21.42
46291;BME280;32023;44.444;26.006;2023-09-19T11:14:41;100562.66;;;33.84;21.10
46291;BME280;32023;44.444;26.006;2023-09-19T11:30:39;100545.19;;;35.17;18.76
46291;BME280;32023;44.444;26.006;2023-09-19T11:33:39;100532.50;;;35.18;18.48
46291;BME280;32023;44.444;26.006;2023-09-19T11:36:36;100538.97;;;35.26;18.45
46291;BME280;32023;44.444;26.006;2023-09-19T11:39:25;100531.69;;;35.18;17.92
46291;BME280;32023;44.444;26.006;2023-09-19T11:42:08;100538.44;;;35.79;17.42
46291;BME280;32023;44.444;26.006;2023-09-19T11:44:47;100531.72;;;36.27;17.34
46291;BME280;32023;44.444;26.006;2023-09-19T11:47:21;100530.56;;;35.87;17.31
46291;BME280;32023;44.444;26.006;2023-09-19T11:49:53;100506.53;;;34.92;18.37
46291;BME280;32023;44.444;26.006;2023-09-19T11:52:25;100534.59;;;34.49;19.03
46291;BME280;32023;44.444;26.006;2023-09-19T11:55:05;100530.72;;;34.07;19.56
46291;BME280;32023;44.444;26.006;2023-09-19T11:57:32;100520.16;;;33.97;19.58
46291;BME280;32023;44.444;26.006;2023-09-19T12:00:02;100522.53;;;34.13;19.25
46291;BME280;32023;44.444;26.006;2023-09-19T12:02:47;100518.03;;;34.19;19.20
46291;BME280;32023;44.444;26.006;2023-09-19T12:05:29;100518.84;;;34.23;19.13
46291;BME280;32023;44.444;26.006;2023-09-19T12:07:56;100516.41;;;34.21;19.26
46291;BME280;32023;44.444;26.006;2023-09-19T12:10:28;100512.72;;;34.21;19.38
46291;BME280;32023;44.444;26.006;2023-09-19T12:13:02;100508.75;;;33.90;19.60
46291;BME280;32023;44.444;26.006;2023-09-19T12:15:29;100502.72;;;33.70;19.78
46291;BME280;32023;44.444;26.006;2023-09-19T12:18:27;100508.06;;;33.40;19.85
46291;BME280;32023;44.444;26.006;2023-09-19T12:20:59;100501.97;;;33.20;20.18
46291;BME280;32023;44.444;26.006;2023-09-19T12:23:32;100492.19;;;33.04;20.17
46291;BME280;32023;44.444;26.006;2023-09-19T12:26:03;100490.97;;;32.80;20.30
46291;BME280;32023;44.444;26.006;2023-09-19T12:28:42;100487.66;;;32.42;20.50
46291;BME280;32023;44.444;26.006;2023-09-19T12:31:09;100481.84;;;32.07;21.10
46291;BME280;32023;44.444;26.006;2023-09-19T12:33:38;100483.81;;;31.96;20.96
46291;BME280;32023;44.444;26.006;2023-09-19T12:36:35;100485.00;;;31.81;21.00
46291;BME280;32023;44.444;26.006;2023-09-19T12:39:08;100482.13;;;31.74;21.14
46291;BME280;32023;44.444;26.006;2023-09-19T12:41:35;100481.22;;;31.56;21.37
46291;BME280;32023;44.444;26.006;2023-09-19T12:44:10;100475.47;;;31.48;21.78
46291;BME280;32023;44.444;26.006;2023-09-19T12:46:37;100470.16;;;31.47;21.88
46291;BME280;32023;44.444;26.006;2023-09-19T12:49:18;100483.94;;;31.38;22.17
46291;BME280;32023;44.444;26.006;2023-09-19T12:51:48;100479.06;;;31.38;21.96
46291;BME280;32023;44.444;26.006;2023-09-19T12:54:15;100470.91;;;31.37;22.12
46291;BME280;32023;44.444;26.006;2023-09-19T12:56:44;100466.84;;;31.34;22.53
46291;BME280;32023;44.444;26.006;2023-09-19T12:59:13;100465.56;;;31.28;22.78
46291;BME280;32023;44.444;26.006;2023-09-19T13:01:43;100466.75;;;31.20;22.85
46291;BME280;32023;44.444;26.006;2023-09-19T13:04:14;100465.50;;;31.14;23.04
46291;BME280;32023;44.444;26.006;2023-09-19T13:06:49;100469.16;;;31.15;22.81
46291;BME280;32023;44.444;26.006;2023-09-19T13:09:20;100465.50;;;31.18;22.83
46291;BME280;32023;44.444;26.006;2023-09-19T13:11:47;100463.47;;;31.15;22.65
46291;BME280;32023;44.444;26.006;2023-09-19T13:14:24;100454.44;;;31.02;23.03
46291;BME280;32023;44.444;26.006;2023-09-19T13:19:47;100453.47;;;30.87;22.91
46291;BME280;32023;44.444;26.006;2023-09-19T13:22:45;100457.03;;;30.74;22.85
46291;BME280;32023;44.444;26.006;2023-09-19T13:25:31;100450.03;;;30.64;23.13
46291;BME280;32023;44.444;26.006;2023-09-19T13:27:59;100452.41;;;30.55;23.55
46291;BME280;32023;44.444;26.006;2023-09-19T13:30:27;100443.84;;;30.51;24.29
46291;BME280;32023;44.444;26.006;2023-09-19T13:33:10;100440.16;;;30.47;24.22
46291;BME280;32023;44.444;26.006;2023-09-19T13:35:47;100439.63;;;30.38;23.98
46291;BME280;32023;44.444;26.006;2023-09-19T13:38:26;100438.31;;;30.25;24.32
46291;BME280;32023;44.444;26.006;2023-09-19T13:40:57;100448.38;;;30.19;24.72
46291;BME280;32023;44.444;26.006;2023-09-19T13:43:47;100447.09;;;30.13;24.68
46291;BME280;32023;44.444;26.006;2023-09-19T13:46:20;100444.22;;;30.09;24.59
46291;BME280;32023;44.444;26.006;2023-09-19T13:52:35;100433.84;;;29.87;24.77
46291;BME280;32023;44.444;26.006;2023-09-19T13:55:42;100436.88;;;29.72;24.32
46291;BME280;32023;44.444;26.006;2023-09-19T13:58:40;100423.69;;;29.56;24.71
46291;BME280;32023;44.444;26.006;2023-09-19T14:01:11;100424.41;;;29.50;24.46
46291;BME280;32023;44.444;26.006;2023-09-19T14:03:44;100425.97;;;29.44;24.25
46291;BME280;32023;44.444;26.006;2023-09-19T14:06:53;100265.47;;;28.27;24.04
46291;BME280;32023;44.444;26.006;2023-09-19T14:10:04;100427.66;;;29.22;24.49
46291;BME280;32023;44.444;26.006;2023-09-19T14:12:38;100426.84;;;29.22;24.92
46291;BME280;32023;44.444;26.006;2023-09-19T14:15:09;100427.22;;;29.20;24.25
46291;BME280;32023;44.444;26.006;2023-09-19T14:17:58;100428.72;;;29.10;24.49
46291;BME280;32023;44.444;26.006;2023-09-19T14:20:23;100428.22;;;29.05;24.64
46291;BME280;32023;44.444;26.006;2023-09-19T14:22:59;100424.06;;;28.99;26.30
46291;BME280;32023;44.444;26.006;2023-09-19T14:25:30;100430.84;;;28.91;26.57
46291;BME280;32023;44.444;26.006;2023-09-19T14:28:00;100422.53;;;28.79;26.88
46291;BME280;32023;44.444;26.006;2023-09-19T14:30:29;100416.72;;;28.68;27.37
46291;BME280;32023;44.444;26.006;2023-09-19T14:33:09;100419.66;;;28.52;27.98
46291;BME280;32023;44.444;26.006;2023-09-19T14:35:52;100415.41;;;28.39;27.40
46291;BME280;32023;44.444;26.006;2023-09-19T14:38:24;100414.41;;;28.28;27.58
46291;BME280;32023;44.444;26.006;2023-09-19T14:41:06;100414.56;;;28.16;27.51
46291;BME280;32023;44.444;26.006;2023-09-19T14:43:34;100416.16;;;27.94;27.85
46291;BME280;32023;44.444;26.006;2023-09-19T14:46:12;100407.78;;;27.79;28.59
46291;BME280;32023;44.444;26.006;2023-09-19T14:48:47;100412.84;;;27.69;28.81
46291;BME280;32023;44.444;26.006;2023-09-19T14:51:22;100406.22;;;27.62;28.96
46291;BME280;32023;44.444;26.006;2023-09-19T14:53:58;100398.41;;;27.55;29.09
46291;BME280;32023;44.444;26.006;2023-09-19T14:56:30;100396.50;;;27.44;29.24
46291;BME280;32023;44.444;26.006;2023-09-19T14:58:59;100392.56;;;27.29;29.36
46291;BME280;32023;44.444;26.006;2023-09-19T15:04:52;100392.25;;;26.96;29.77